sensor_id;sensor_type;location;lat;lon;timestamp;P1;durP1;ratioP1;P2;durP2;ratioP2
11498;SDS011;5806;48.748;9.278;2023-05-20T00:00:48;3.33;;;1.70;;
11498;SDS011;5806;48.748;9.278;2023-05-20T00:03:17;3.07;;;1.70;;
11498;SDS011;5806;48.748;9.278;2023-05-20T00:05:45;2.53;;;1.60;;
11498;SDS011;5806;48.748;9.278;2023-05-20T00:08:13;2.97;;;1.70;;
11498;SDS011;5806;48.748;9.278;2023-05-20T00:10:41;2.23;;;1.30;;
11498;SDS011;5806;48.748;9.278;2023-05-20T00:13:08;2.07;;;1.43;;
11498;SDS011;5806;48.748;9.278;2023-05-20T00:15:36;5.33;;;1.50;;
11498;SDS011;5806;48.748;9.278;2023-05-20T00:18:04;4.20;;;1.60;;
11498;SDS011;5806;48.748;9.278;2023-05-20T00:20:31;2.03;;;1.50;;
11498;SDS011;5806;48.748;9.278;2023-05-20T00:22:59;3.90;;;1.80;;
11498;SDS011;5806;48.748;9.278;2023-05-20T00:25:26;2.40;;;1.43;;
11498;SDS011;5806;48.748;9.278;2023-05-20T00:27:56;2.73;;;1.53;;
11498;SDS011;5806;48.748;9.278;2023-05-20T00:30:23;2.17;;;1.60;;
11498;SDS011;5806;48.748;9.278;2023-05-20T00:32:52;3.43;;;1.70;;
11498;SDS011;5806;48.748;9.278;2023-05-20T00:35:20;3.77;;;1.50;;
11498;SDS011;5806;48.748;9.278;2023-05-20T00:37:47;1.60;;;1.50;;
11498;SDS011;5806;48.748;9.278;2023-05-20T00:40:15;3.37;;;1.73;;
11498;SDS011;5806;48.748;9.278;2023-05-20T00:42:43;3.93;;;2.10;;
11498;SDS011;5806;48.748;9.278;2023-05-20T00:45:10;3.80;;;1.80;;
11498;SDS011;5806;48.748;9.278;2023-05-20T00:47:38;2.17;;;1.50;;
11498;SDS011;5806;48.748;9.278;2023-05-20T00:50:05;2.70;;;1.50;;
11498;SDS011;5806;48.748;9.278;2023-05-20T00:52:35;3.53;;;1.60;;
11498;SDS011;5806;48.748;9.278;2023-05-20T00:55:03;2.83;;;1.60;;
11498;SDS011;5806;48.748;9.278;2023-05-20T00:57:30;3.30;;;1.70;;
11498;SDS011;5806;48.748;9.278;2023-05-20T00:59:58;3.23;;;1.33;;
11498;SDS011;5806;48.748;9.278;2023-05-20T01:02:25;2.60;;;1.67;;
11498;SDS011;5806;48.748;9.278;2023-05-20T01:04:54;3.57;;;1.40;;
11498;SDS011;5806;48.748;9.278;2023-05-20T01:07:21;2.10;;;1.43;;
11498;SDS011;5806;48.748;9.278;2023-05-20T01:09:50;1.97;;;1.50;;
11498;SDS011;5806;48.748;9.278;2023-05-20T01:12:27;2.87;;;1.73;;
11498;SDS011;5806;48.748;9.278;2023-05-20T01:15:04;2.37;;;1.60;;
11498;SDS011;5806;48.748;9.278;2023-05-20T01:17:34;2.30;;;1.87;;
11498;SDS011;5806;48.748;9.278;2023-05-20T01:20:05;2.13;;;1.33;;
11498;SDS011;5806;48.748;9.278;2023-05-20T01:22:37;1.93;;;1.60;;
11498;SDS011;5806;48.748;9.278;2023-05-20T01:25:07;2.00;;;1.60;;
11498;SDS011;5806;48.748;9.278;2023-05-20T01:27:34;2.37;;;1.70;;
11498;SDS011;5806;48.748;9.278;2023-05-20T01:30:02;3.83;;;1.50;;
11498;SDS011;5806;48.748;9.278;2023-05-20T01:32:42;2.73;;;1.60;;
11498;SDS011;5806;48.748;9.278;2023-05-20T01:35:13;2.27;;;1.50;;
11498;SDS011;5806;48.748;9.278;2023-05-20T01:37:42;2.17;;;1.70;;
11498;SDS011;5806;48.748;9.278;2023-05-20T01:40:11;2.37;;;1.60;;
11498;SDS011;5806;48.748;9.278;2023-05-20T01:42:43;4.40;;;1.70;;
11498;SDS011;5806;48.748;9.278;2023-05-20T01:45:13;2.47;;;1.50;;
11498;SDS011;5806;48.748;9.278;2023-05-20T01:47:41;2.00;;;1.40;;
11498;SDS011;5806;48.748;9.278;2023-05-20T01:50:12;3.00;;;1.60;;
11498;SDS011;5806;48.748;9.278;2023-05-20T01:52:40;4.37;;;1.83;;
11498;SDS011;5806;48.748;9.278;2023-05-20T01:55:07;3.67;;;1.50;;
11498;SDS011;5806;48.748;9.278;2023-05-20T01:57:35;2.37;;;1.60;;
11498;SDS011;5806;48.748;9.278;2023-05-20T02:00:03;2.63;;;1.87;;
11498;SDS011;5806;48.748;9.278;2023-05-20T02:02:31;2.57;;;1.63;;
11498;SDS011;5806;48.748;9.278;2023-05-20T02:04:59;3.50;;;1.80;;
11498;SDS011;5806;48.748;9.278;2023-05-20T02:07:28;2.23;;;1.87;;
11498;SDS011;5806;48.748;9.278;2023-05-20T02:09:55;3.40;;;1.93;;
11498;SDS011;5806;48.748;9.278;2023-05-20T02:12:23;2.17;;;1.73;;
11498;SDS011;5806;48.748;9.278;2023-05-20T02:14:50;4.83;;;1.57;;
11498;SDS011;5806;48.748;9.278;2023-05-20T02:17:19;3.53;;;1.93;;
11498;SDS011;5806;48.748;9.278;2023-05-20T02:19:47;2.63;;;1.70;;
11498;SDS011;5806;48.748;9.278;2023-05-20T02:22:14;3.00;;;2.07;;
11498;SDS011;5806;48.748;9.278;2023-05-20T02:24:42;4.17;;;1.53;;
11498;SDS011;5806;48.748;9.278;2023-05-20T02:27:10;2.97;;;1.53;;
11498;SDS011;5806;48.748;9.278;2023-05-20T02:29:37;3.33;;;1.93;;
11498;SDS011;5806;48.748;9.278;2023-05-20T02:32:05;3.77;;;1.60;;
11498;SDS011;5806;48.748;9.278;2023-05-20T02:34:33;2.50;;;1.70;;
11498;SDS011;5806;48.748;9.278;2023-05-20T02:37:01;3.30;;;1.90;;
11498;SDS011;5806;48.748;9.278;2023-05-20T02:39:28;2.63;;;1.83;;
11498;SDS011;5806;48.748;9.278;2023-05-20T02:41:56;3.27;;;1.63;;
11498;SDS011;5806;48.748;9.278;2023-05-20T02:44:23;3.13;;;1.70;;
11498;SDS011;5806;48.748;9.278;2023-05-20T02:46:51;4.60;;;1.80;;
11498;SDS011;5806;48.748;9.278;2023-05-20T02:49:19;2.57;;;1.87;;
11498;SDS011;5806;48.748;9.278;2023-05-20T02:51:46;3.33;;;1.80;;
11498;SDS011;5806;48.748;9.278;2023-05-20T02:54:14;2.53;;;1.63;;
11498;SDS011;5806;48.748;9.278;2023-05-20T02:56:42;4.73;;;2.03;;
11498;SDS011;5806;48.748;9.278;2023-05-20T02:59:10;4.67;;;1.70;;
11498;SDS011;5806;48.748;9.278;2023-05-20T03:01:37;3.20;;;1.73;;
11498;SDS011;5806;48.748;9.278;2023-05-20T03:04:05;2.37;;;1.70;;
11498;SDS011;5806;48.748;9.278;2023-05-20T03:06:33;3.00;;;1.53;;
11498;SDS011;5806;48.748;9.278;2023-05-20T03:09:02;2.23;;;1.60;;
11498;SDS011;5806;48.748;9.278;2023-05-20T03:11:30;2.50;;;1.70;;
11498;SDS011;5806;48.748;9.278;2023-05-20T03:13:57;2.60;;;1.80;;
11498;SDS011;5806;48.748;9.278;2023-05-20T03:16:25;3.63;;;1.90;;
11498;SDS011;5806;48.748;9.278;2023-05-20T03:18:53;2.50;;;1.90;;
11498;SDS011;5806;48.748;9.278;2023-05-20T03:21:20;3.40;;;2.20;;
11498;SDS011;5806;48.748;9.278;2023-05-20T03:23:48;2.33;;;1.80;;
11498;SDS011;5806;48.748;9.278;2023-05-20T03:26:16;2.87;;;1.70;;
11498;SDS011;5806;48.748;9.278;2023-05-20T03:28:44;2.80;;;1.63;;
11498;SDS011;5806;48.748;9.278;2023-05-20T03:31:11;2.23;;;1.80;;
11498;SDS011;5806;48.748;9.278;2023-05-20T03:33:39;4.57;;;2.00;;
11498;SDS011;5806;48.748;9.278;2023-05-20T03:36:06;3.00;;;1.77;;
11498;SDS011;5806;48.748;9.278;2023-05-20T03:38:34;2.67;;;2.17;;
11498;SDS011;5806;48.748;9.278;2023-05-20T03:41:01;3.03;;;2.00;;
11498;SDS011;5806;48.748;9.278;2023-05-20T03:43:29;4.47;;;2.40;;
11498;SDS011;5806;48.748;9.278;2023-05-20T03:45:56;6.33;;;2.63;;
11498;SDS011;5806;48.748;9.278;2023-05-20T03:48:24;3.47;;;2.10;;
11498;SDS011;5806;48.748;9.278;2023-05-20T03:50:51;2.83;;;2.03;;
11498;SDS011;5806;48.748;9.278;2023-05-20T03:53:19;3.20;;;2.03;;
11498;SDS011;5806;48.748;9.278;2023-05-20T03:55:47;2.20;;;1.93;;
11498;SDS011;5806;48.748;9.278;2023-05-20T03:58:14;2.67;;;2.37;;
11498;SDS011;5806;48.748;9.278;2023-05-20T04:00:42;2.43;;;2.10;;
11498;SDS011;5806;48.748;9.278;2023-05-20T04:03:09;4.07;;;2.17;;
11498;SDS011;5806;48.748;9.278;2023-05-20T04:05:40;3.40;;;2.50;;
11498;SDS011;5806;48.748;9.278;2023-05-20T04:08:07;4.97;;;2.50;;
11498;SDS011;5806;48.748;9.278;2023-05-20T04:10:36;3.97;;;2.47;;
11498;SDS011;5806;48.748;9.278;2023-05-20T04:13:06;3.27;;;2.50;;
11498;SDS011;5806;48.748;9.278;2023-05-20T04:15:37;3.80;;;2.60;;
11498;SDS011;5806;48.748;9.278;2023-05-20T04:18:05;3.67;;;2.43;;
11498;SDS011;5806;48.748;9.278;2023-05-20T04:20:33;3.33;;;2.63;;
11498;SDS011;5806;48.748;9.278;2023-05-20T04:23:01;3.60;;;2.70;;
11498;SDS011;5806;48.748;9.278;2023-05-20T04:25:29;3.77;;;2.53;;
11498;SDS011;5806;48.748;9.278;2023-05-20T04:27:56;4.00;;;2.53;;
11498;SDS011;5806;48.748;9.278;2023-05-20T04:30:25;4.00;;;2.67;;
11498;SDS011;5806;48.748;9.278;2023-05-20T04:32:53;3.93;;;3.27;;
11498;SDS011;5806;48.748;9.278;2023-05-20T04:35:20;5.77;;;2.60;;
11498;SDS011;5806;48.748;9.278;2023-05-20T04:37:49;5.50;;;2.83;;
11498;SDS011;5806;48.748;9.278;2023-05-20T04:40:19;3.77;;;3.10;;
11498;SDS011;5806;48.748;9.278;2023-05-20T04:42:47;4.23;;;2.77;;
11498;SDS011;5806;48.748;9.278;2023-05-20T04:45:15;4.10;;;3.30;;
11498;SDS011;5806;48.748;9.278;2023-05-20T04:47:43;3.03;;;2.73;;
11498;SDS011;5806;48.748;9.278;2023-05-20T04:50:10;3.13;;;2.67;;
11498;SDS011;5806;48.748;9.278;2023-05-20T04:52:39;3.40;;;2.77;;
11498;SDS011;5806;48.748;9.278;2023-05-20T04:55:08;3.03;;;2.67;;
11498;SDS011;5806;48.748;9.278;2023-05-20T04:57:36;4.63;;;2.60;;
11498;SDS011;5806;48.748;9.278;2023-05-20T05:00:06;2.87;;;2.50;;
11498;SDS011;5806;48.748;9.278;2023-05-20T05:02:35;3.13;;;2.63;;
11498;SDS011;5806;48.748;9.278;2023-05-20T05:05:05;4.13;;;2.80;;
11498;SDS011;5806;48.748;9.278;2023-05-20T05:07:33;3.40;;;2.70;;
11498;SDS011;5806;48.748;9.278;2023-05-20T05:10:01;4.43;;;2.70;;
11498;SDS011;5806;48.748;9.278;2023-05-20T05:12:28;4.50;;;3.00;;
11498;SDS011;5806;48.748;9.278;2023-05-20T05:14:56;5.13;;;2.77;;
11498;SDS011;5806;48.748;9.278;2023-05-20T05:17:24;3.10;;;2.63;;
11498;SDS011;5806;48.748;9.278;2023-05-20T05:19:53;3.53;;;2.57;;
11498;SDS011;5806;48.748;9.278;2023-05-20T05:22:21;4.43;;;2.50;;
11498;SDS011;5806;48.748;9.278;2023-05-20T05:24:49;5.13;;;3.00;;
11498;SDS011;5806;48.748;9.278;2023-05-20T05:27:16;3.80;;;3.00;;
11498;SDS011;5806;48.748;9.278;2023-05-20T05:29:44;3.93;;;2.67;;
11498;SDS011;5806;48.748;9.278;2023-05-20T05:32:11;3.20;;;2.90;;
11498;SDS011;5806;48.748;9.278;2023-05-20T05:34:39;4.90;;;2.70;;
11498;SDS011;5806;48.748;9.278;2023-05-20T05:37:07;4.40;;;2.70;;
11498;SDS011;5806;48.748;9.278;2023-05-20T05:39:34;3.20;;;2.67;;
11498;SDS011;5806;48.748;9.278;2023-05-20T05:42:03;5.33;;;2.73;;
11498;SDS011;5806;48.748;9.278;2023-05-20T05:44:31;4.73;;;2.47;;
11498;SDS011;5806;48.748;9.278;2023-05-20T05:46:58;2.87;;;2.50;;
11498;SDS011;5806;48.748;9.278;2023-05-20T05:49:26;5.47;;;2.90;;
11498;SDS011;5806;48.748;9.278;2023-05-20T05:51:54;4.63;;;2.87;;
11498;SDS011;5806;48.748;9.278;2023-05-20T05:54:21;6.03;;;3.07;;
11498;SDS011;5806;48.748;9.278;2023-05-20T05:56:52;6.07;;;3.53;;
11498;SDS011;5806;48.748;9.278;2023-05-20T05:59:21;4.47;;;3.23;;
11498;SDS011;5806;48.748;9.278;2023-05-20T06:01:49;5.70;;;3.20;;
11498;SDS011;5806;48.748;9.278;2023-05-20T06:04:16;4.80;;;2.90;;
11498;SDS011;5806;48.748;9.278;2023-05-20T06:06:43;4.13;;;2.90;;
11498;SDS011;5806;48.748;9.278;2023-05-20T06:09:11;3.93;;;2.93;;
11498;SDS011;5806;48.748;9.278;2023-05-20T06:11:38;4.00;;;2.30;;
11498;SDS011;5806;48.748;9.278;2023-05-20T06:14:06;3.10;;;2.60;;
11498;SDS011;5806;48.748;9.278;2023-05-20T06:16:34;3.93;;;2.83;;
11498;SDS011;5806;48.748;9.278;2023-05-20T06:19:01;4.27;;;2.57;;
11498;SDS011;5806;48.748;9.278;2023-05-20T06:21:30;5.90;;;2.77;;
11498;SDS011;5806;48.748;9.278;2023-05-20T06:23:58;4.53;;;2.80;;
11498;SDS011;5806;48.748;9.278;2023-05-20T06:26:25;3.03;;;2.73;;
11498;SDS011;5806;48.748;9.278;2023-05-20T06:28:53;3.23;;;2.50;;
11498;SDS011;5806;48.748;9.278;2023-05-20T06:31:20;4.37;;;2.83;;
11498;SDS011;5806;48.748;9.278;2023-05-20T06:33:48;4.20;;;2.90;;
11498;SDS011;5806;48.748;9.278;2023-05-20T06:36:16;3.67;;;2.40;;
11498;SDS011;5806;48.748;9.278;2023-05-20T06:38:43;4.47;;;3.10;;
11498;SDS011;5806;48.748;9.278;2023-05-20T06:41:10;3.43;;;2.50;;
11498;SDS011;5806;48.748;9.278;2023-05-20T06:43:38;2.97;;;2.60;;
11498;SDS011;5806;48.748;9.278;2023-05-20T06:46:05;4.77;;;2.63;;
11498;SDS011;5806;48.748;9.278;2023-05-20T06:48:33;3.13;;;2.53;;
11498;SDS011;5806;48.748;9.278;2023-05-20T06:51:00;4.67;;;2.80;;
11498;SDS011;5806;48.748;9.278;2023-05-20T06:53:28;2.77;;;2.50;;
11498;SDS011;5806;48.748;9.278;2023-05-20T06:55:55;5.23;;;3.17;;
11498;SDS011;5806;48.748;9.278;2023-05-20T06:58:22;5.63;;;2.90;;
11498;SDS011;5806;48.748;9.278;2023-05-20T07:00:50;4.70;;;2.73;;
11498;SDS011;5806;48.748;9.278;2023-05-20T07:03:17;3.80;;;2.67;;
11498;SDS011;5806;48.748;9.278;2023-05-20T07:05:45;4.83;;;2.97;;
11498;SDS011;5806;48.748;9.278;2023-05-20T07:08:13;3.83;;;2.97;;
11498;SDS011;5806;48.748;9.278;2023-05-20T07:10:40;4.33;;;2.60;;
11498;SDS011;5806;48.748;9.278;2023-05-20T07:13:07;4.90;;;3.10;;
11498;SDS011;5806;48.748;9.278;2023-05-20T07:15:35;2.97;;;2.63;;
11498;SDS011;5806;48.748;9.278;2023-05-20T07:18:03;4.27;;;2.87;;
11498;SDS011;5806;48.748;9.278;2023-05-20T07:20:30;3.10;;;2.80;;
11498;SDS011;5806;48.748;9.278;2023-05-20T07:22:58;3.50;;;2.43;;
11498;SDS011;5806;48.748;9.278;2023-05-20T07:25:27;3.40;;;2.53;;
11498;SDS011;5806;48.748;9.278;2023-05-20T07:27:55;4.97;;;3.20;;
11498;SDS011;5806;48.748;9.278;2023-05-20T07:30:22;5.00;;;2.83;;
11498;SDS011;5806;48.748;9.278;2023-05-20T07:32:50;6.97;;;3.20;;
11498;SDS011;5806;48.748;9.278;2023-05-20T07:35:17;5.97;;;2.80;;
11498;SDS011;5806;48.748;9.278;2023-05-20T07:37:45;4.47;;;3.10;;
11498;SDS011;5806;48.748;9.278;2023-05-20T07:40:12;6.97;;;3.07;;
11498;SDS011;5806;48.748;9.278;2023-05-20T07:42:40;3.67;;;2.90;;
11498;SDS011;5806;48.748;9.278;2023-05-20T07:45:10;4.17;;;2.83;;
11498;SDS011;5806;48.748;9.278;2023-05-20T07:47:55;3.73;;;2.80;;
11498;SDS011;5806;48.748;9.278;2023-05-20T07:50:23;4.03;;;3.00;;
11498;SDS011;5806;48.748;9.278;2023-05-20T07:52:50;4.83;;;3.20;;
11498;SDS011;5806;48.748;9.278;2023-05-20T07:55:18;5.40;;;3.00;;
11498;SDS011;5806;48.748;9.278;2023-05-20T07:57:45;4.67;;;2.83;;
11498;SDS011;5806;48.748;9.278;2023-05-20T08:00:13;4.93;;;2.93;;
11498;SDS011;5806;48.748;9.278;2023-05-20T08:02:40;3.17;;;2.80;;
11498;SDS011;5806;48.748;9.278;2023-05-20T08:05:07;5.97;;;3.20;;
11498;SDS011;5806;48.748;9.278;2023-05-20T08:07:35;5.40;;;3.20;;
11498;SDS011;5806;48.748;9.278;2023-05-20T08:10:03;5.13;;;2.80;;
11498;SDS011;5806;48.748;9.278;2023-05-20T08:12:30;3.33;;;2.63;;
11498;SDS011;5806;48.748;9.278;2023-05-20T08:14:58;3.93;;;2.90;;
11498;SDS011;5806;48.748;9.278;2023-05-20T08:17:25;4.17;;;3.23;;
11498;SDS011;5806;48.748;9.278;2023-05-20T08:19:53;4.10;;;3.13;;
11498;SDS011;5806;48.748;9.278;2023-05-20T08:22:20;4.53;;;3.00;;
11498;SDS011;5806;48.748;9.278;2023-05-20T08:24:48;4.70;;;3.43;;
11498;SDS011;5806;48.748;9.278;2023-05-20T08:27:15;8.00;;;3.27;;
11498;SDS011;5806;48.748;9.278;2023-05-20T08:29:43;3.83;;;2.93;;
11498;SDS011;5806;48.748;9.278;2023-05-20T08:32:11;5.83;;;2.97;;
11498;SDS011;5806;48.748;9.278;2023-05-20T08:34:38;4.73;;;3.50;;
11498;SDS011;5806;48.748;9.278;2023-05-20T08:37:07;5.73;;;3.30;;
11498;SDS011;5806;48.748;9.278;2023-05-20T08:39:34;4.17;;;3.23;;
11498;SDS011;5806;48.748;9.278;2023-05-20T08:42:02;4.57;;;3.20;;
11498;SDS011;5806;48.748;9.278;2023-05-20T08:44:31;5.43;;;3.37;;
11498;SDS011;5806;48.748;9.278;2023-05-20T08:46:59;3.47;;;2.70;;
11498;SDS011;5806;48.748;9.278;2023-05-20T08:49:28;3.40;;;2.90;;
11498;SDS011;5806;48.748;9.278;2023-05-20T08:51:57;4.00;;;2.93;;
11498;SDS011;5806;48.748;9.278;2023-05-20T08:54:30;3.70;;;3.23;;
11498;SDS011;5806;48.748;9.278;2023-05-20T08:56:57;5.60;;;3.67;;
11498;SDS011;5806;48.748;9.278;2023-05-20T08:59:25;4.27;;;3.60;;
11498;SDS011;5806;48.748;9.278;2023-05-20T09:01:52;4.23;;;3.47;;
11498;SDS011;5806;48.748;9.278;2023-05-20T09:04:20;4.10;;;3.23;;
11498;SDS011;5806;48.748;9.278;2023-05-20T09:06:49;4.63;;;3.20;;
11498;SDS011;5806;48.748;9.278;2023-05-20T09:09:16;3.50;;;2.93;;
11498;SDS011;5806;48.748;9.278;2023-05-20T09:11:44;4.43;;;3.27;;
11498;SDS011;5806;48.748;9.278;2023-05-20T09:14:11;3.57;;;2.83;;
11498;SDS011;5806;48.748;9.278;2023-05-20T09:16:39;3.10;;;2.67;;
11498;SDS011;5806;48.748;9.278;2023-05-20T09:19:06;3.90;;;2.87;;
11498;SDS011;5806;48.748;9.278;2023-05-20T09:21:34;4.63;;;3.20;;
11498;SDS011;5806;48.748;9.278;2023-05-20T09:24:03;8.17;;;3.10;;
11498;SDS011;5806;48.748;9.278;2023-05-20T09:26:31;7.93;;;3.83;;
11498;SDS011;5806;48.748;9.278;2023-05-20T09:28:59;8.03;;;3.50;;
11498;SDS011;5806;48.748;9.278;2023-05-20T09:31:26;4.03;;;3.07;;
11498;SDS011;5806;48.748;9.278;2023-05-20T09:33:56;4.53;;;3.43;;
11498;SDS011;5806;48.748;9.278;2023-05-20T09:36:24;7.83;;;3.20;;
11498;SDS011;5806;48.748;9.278;2023-05-20T09:38:57;4.20;;;3.07;;
11498;SDS011;5806;48.748;9.278;2023-05-20T09:41:30;3.83;;;3.03;;
11498;SDS011;5806;48.748;9.278;2023-05-20T09:44:01;4.33;;;3.00;;
11498;SDS011;5806;48.748;9.278;2023-05-20T09:46:28;3.80;;;2.90;;
11498;SDS011;5806;48.748;9.278;2023-05-20T09:48:57;3.50;;;2.90;;
11498;SDS011;5806;48.748;9.278;2023-05-20T09:51:26;3.40;;;3.10;;
11498;SDS011;5806;48.748;9.278;2023-05-20T09:53:54;3.27;;;2.73;;
11498;SDS011;5806;48.748;9.278;2023-05-20T09:56:23;3.67;;;2.90;;
11498;SDS011;5806;48.748;9.278;2023-05-20T09:58:52;3.93;;;3.00;;
11498;SDS011;5806;48.748;9.278;2023-05-20T10:01:23;4.07;;;2.80;;
11498;SDS011;5806;48.748;9.278;2023-05-20T10:03:51;3.23;;;2.93;;
11498;SDS011;5806;48.748;9.278;2023-05-20T10:06:34;6.70;;;3.07;;
11498;SDS011;5806;48.748;9.278;2023-05-20T10:11:46;6.10;;;2.83;;
11498;SDS011;5806;48.748;9.278;2023-05-20T10:16:53;3.70;;;2.73;;
11498;SDS011;5806;48.748;9.278;2023-05-20T10:19:34;4.17;;;2.97;;
11498;SDS011;5806;48.748;9.278;2023-05-20T10:22:05;4.33;;;3.10;;
11498;SDS011;5806;48.748;9.278;2023-05-20T10:24:35;4.23;;;2.90;;
11498;SDS011;5806;48.748;9.278;2023-05-20T10:27:13;3.33;;;3.03;;
11498;SDS011;5806;48.748;9.278;2023-05-20T10:29:49;4.03;;;3.07;;
11498;SDS011;5806;48.748;9.278;2023-05-20T10:32:29;4.33;;;3.27;;
11498;SDS011;5806;48.748;9.278;2023-05-20T10:34:57;3.57;;;3.27;;
11498;SDS011;5806;48.748;9.278;2023-05-20T10:37:28;3.53;;;3.00;;
11498;SDS011;5806;48.748;9.278;2023-05-20T10:40:07;4.33;;;3.53;;
11498;SDS011;5806;48.748;9.278;2023-05-20T10:42:32;4.53;;;3.70;;
11498;SDS011;5806;48.748;9.278;2023-05-20T10:44:59;4.57;;;3.80;;
11498;SDS011;5806;48.748;9.278;2023-05-20T10:47:28;6.60;;;3.93;;
11498;SDS011;5806;48.748;9.278;2023-05-20T10:49:56;4.23;;;3.23;;
11498;SDS011;5806;48.748;9.278;2023-05-20T10:52:26;5.83;;;3.80;;
11498;SDS011;5806;48.748;9.278;2023-05-20T10:54:57;4.90;;;3.33;;
11498;SDS011;5806;48.748;9.278;2023-05-20T10:57:25;4.00;;;3.03;;
11498;SDS011;5806;48.748;9.278;2023-05-20T10:59:54;4.93;;;3.70;;
11498;SDS011;5806;48.748;9.278;2023-05-20T11:02:22;6.23;;;4.13;;
11498;SDS011;5806;48.748;9.278;2023-05-20T11:04:58;5.37;;;3.60;;
11498;SDS011;5806;48.748;9.278;2023-05-20T11:07:27;3.93;;;3.57;;
11498;SDS011;5806;48.748;9.278;2023-05-20T11:09:55;4.90;;;3.90;;
11498;SDS011;5806;48.748;9.278;2023-05-20T11:12:24;5.07;;;4.30;;
11498;SDS011;5806;48.748;9.278;2023-05-20T11:14:52;4.70;;;4.10;;
11498;SDS011;5806;48.748;9.278;2023-05-20T11:17:20;9.27;;;4.70;;
11498;SDS011;5806;48.748;9.278;2023-05-20T11:19:47;4.60;;;3.90;;
11498;SDS011;5806;48.748;9.278;2023-05-20T11:22:16;4.43;;;3.53;;
11498;SDS011;5806;48.748;9.278;2023-05-20T11:24:43;6.40;;;3.90;;
11498;SDS011;5806;48.748;9.278;2023-05-20T11:27:11;5.57;;;3.50;;
11498;SDS011;5806;48.748;9.278;2023-05-20T11:29:39;5.60;;;3.53;;
11498;SDS011;5806;48.748;9.278;2023-05-20T11:32:06;3.97;;;3.40;;
11498;SDS011;5806;48.748;9.278;2023-05-20T11:34:34;4.43;;;3.50;;
11498;SDS011;5806;48.748;9.278;2023-05-20T11:37:06;5.10;;;3.97;;
11498;SDS011;5806;48.748;9.278;2023-05-20T11:39:35;5.80;;;4.30;;
11498;SDS011;5806;48.748;9.278;2023-05-20T11:42:03;6.20;;;4.10;;
11498;SDS011;5806;48.748;9.278;2023-05-20T11:44:31;4.80;;;4.10;;
11498;SDS011;5806;48.748;9.278;2023-05-20T11:46:59;4.80;;;4.40;;
11498;SDS011;5806;48.748;9.278;2023-05-20T11:49:28;5.63;;;3.97;;
11498;SDS011;5806;48.748;9.278;2023-05-20T11:51:55;4.60;;;4.10;;
11498;SDS011;5806;48.748;9.278;2023-05-20T11:54:23;4.97;;;3.70;;
11498;SDS011;5806;48.748;9.278;2023-05-20T11:56:52;5.90;;;4.20;;
11498;SDS011;5806;48.748;9.278;2023-05-20T11:59:22;5.17;;;3.77;;
11498;SDS011;5806;48.748;9.278;2023-05-20T12:01:50;4.90;;;4.00;;
11498;SDS011;5806;48.748;9.278;2023-05-20T12:04:17;6.37;;;4.53;;
11498;SDS011;5806;48.748;9.278;2023-05-20T12:06:45;5.20;;;4.63;;
11498;SDS011;5806;48.748;9.278;2023-05-20T12:09:12;7.03;;;4.40;;
11498;SDS011;5806;48.748;9.278;2023-05-20T12:11:40;5.00;;;4.40;;
11498;SDS011;5806;48.748;9.278;2023-05-20T12:14:09;4.10;;;3.70;;
11498;SDS011;5806;48.748;9.278;2023-05-20T12:16:36;6.73;;;3.60;;
11498;SDS011;5806;48.748;9.278;2023-05-20T12:19:04;5.20;;;4.10;;
11498;SDS011;5806;48.748;9.278;2023-05-20T12:21:33;5.73;;;4.40;;
11498;SDS011;5806;48.748;9.278;2023-05-20T12:24:00;5.70;;;5.10;;
11498;SDS011;5806;48.748;9.278;2023-05-20T12:26:30;6.27;;;4.73;;
11498;SDS011;5806;48.748;9.278;2023-05-20T12:29:00;7.37;;;4.97;;
11498;SDS011;5806;48.748;9.278;2023-05-20T12:31:27;5.13;;;4.63;;
11498;SDS011;5806;48.748;9.278;2023-05-20T12:33:57;6.67;;;5.63;;
11498;SDS011;5806;48.748;9.278;2023-05-20T12:36:24;5.70;;;4.67;;
11498;SDS011;5806;48.748;9.278;2023-05-20T12:38:53;20.10;;;9.47;;
11498;SDS011;5806;48.748;9.278;2023-05-20T12:41:20;18.47;;;9.27;;
11498;SDS011;5806;48.748;9.278;2023-05-20T12:43:48;6.93;;;5.40;;
11498;SDS011;5806;48.748;9.278;2023-05-20T12:46:15;6.20;;;4.13;;
11498;SDS011;5806;48.748;9.278;2023-05-20T12:48:43;5.00;;;4.43;;
11498;SDS011;5806;48.748;9.278;2023-05-20T12:51:11;5.13;;;4.50;;
11498;SDS011;5806;48.748;9.278;2023-05-20T12:53:38;5.07;;;4.40;;
11498;SDS011;5806;48.748;9.278;2023-05-20T12:56:06;3.80;;;3.33;;
11498;SDS011;5806;48.748;9.278;2023-05-20T12:58:33;11.93;;;4.23;;
11498;SDS011;5806;48.748;9.278;2023-05-20T13:01:01;6.40;;;4.00;;
11498;SDS011;5806;48.748;9.278;2023-05-20T13:03:28;7.57;;;4.20;;
11498;SDS011;5806;48.748;9.278;2023-05-20T13:05:56;12.67;;;4.77;;
11498;SDS011;5806;48.748;9.278;2023-05-20T13:08:23;9.73;;;4.80;;
11498;SDS011;5806;48.748;9.278;2023-05-20T13:10:54;14.90;;;4.93;;
11498;SDS011;5806;48.748;9.278;2023-05-20T13:13:44;4.40;;;4.00;;
11498;SDS011;5806;48.748;9.278;2023-05-20T13:16:12;5.43;;;3.87;;
11498;SDS011;5806;48.748;9.278;2023-05-20T13:18:41;6.23;;;4.13;;
11498;SDS011;5806;48.748;9.278;2023-05-20T13:21:09;5.87;;;4.23;;
11498;SDS011;5806;48.748;9.278;2023-05-20T13:23:37;5.37;;;4.87;;
11498;SDS011;5806;48.748;9.278;2023-05-20T13:26:05;7.07;;;4.77;;
11498;SDS011;5806;48.748;9.278;2023-05-20T13:28:34;4.77;;;4.37;;
11498;SDS011;5806;48.748;9.278;2023-05-20T13:31:01;6.00;;;4.30;;
11498;SDS011;5806;48.748;9.278;2023-05-20T13:33:31;4.90;;;3.80;;
11498;SDS011;5806;48.748;9.278;2023-05-20T13:35:58;5.47;;;4.07;;
11498;SDS011;5806;48.748;9.278;2023-05-20T13:38:25;5.83;;;4.50;;
11498;SDS011;5806;48.748;9.278;2023-05-20T13:40:53;6.47;;;4.20;;
11498;SDS011;5806;48.748;9.278;2023-05-20T13:43:22;4.50;;;3.80;;
11498;SDS011;5806;48.748;9.278;2023-05-20T13:45:50;3.90;;;3.50;;
11498;SDS011;5806;48.748;9.278;2023-05-20T13:48:18;4.33;;;3.93;;
11498;SDS011;5806;48.748;9.278;2023-05-20T13:50:45;5.97;;;4.30;;
11498;SDS011;5806;48.748;9.278;2023-05-20T13:53:13;4.93;;;4.17;;
11498;SDS011;5806;48.748;9.278;2023-05-20T13:55:40;4.87;;;4.13;;
11498;SDS011;5806;48.748;9.278;2023-05-20T13:58:08;6.63;;;4.30;;
11498;SDS011;5806;48.748;9.278;2023-05-20T14:00:35;5.10;;;4.10;;
11498;SDS011;5806;48.748;9.278;2023-05-20T14:03:03;7.83;;;4.00;;
11498;SDS011;5806;48.748;9.278;2023-05-20T14:05:33;6.13;;;3.93;;
11498;SDS011;5806;48.748;9.278;2023-05-20T14:08:00;4.50;;;3.80;;
11498;SDS011;5806;48.748;9.278;2023-05-20T14:10:28;4.47;;;4.00;;
11498;SDS011;5806;48.748;9.278;2023-05-20T14:12:58;4.80;;;3.90;;
11498;SDS011;5806;48.748;9.278;2023-05-20T14:15:26;4.67;;;4.10;;
11498;SDS011;5806;48.748;9.278;2023-05-20T14:18:00;4.13;;;3.73;;
11498;SDS011;5806;48.748;9.278;2023-05-20T14:20:24;6.17;;;4.30;;
11498;SDS011;5806;48.748;9.278;2023-05-20T14:22:52;5.70;;;3.70;;
11498;SDS011;5806;48.748;9.278;2023-05-20T14:25:19;5.53;;;3.90;;
11498;SDS011;5806;48.748;9.278;2023-05-20T14:27:46;5.97;;;3.87;;
11498;SDS011;5806;48.748;9.278;2023-05-20T14:30:15;4.63;;;3.87;;
11498;SDS011;5806;48.748;9.278;2023-05-20T14:32:42;4.40;;;3.70;;
11498;SDS011;5806;48.748;9.278;2023-05-20T14:35:09;4.00;;;3.60;;
11498;SDS011;5806;48.748;9.278;2023-05-20T14:37:37;6.27;;;3.90;;
11498;SDS011;5806;48.748;9.278;2023-05-20T14:40:05;4.73;;;3.80;;
11498;SDS011;5806;48.748;9.278;2023-05-20T14:42:33;4.07;;;3.37;;
11498;SDS011;5806;48.748;9.278;2023-05-20T14:45:02;5.10;;;3.60;;
11498;SDS011;5806;48.748;9.278;2023-05-20T14:47:31;7.63;;;3.40;;
11498;SDS011;5806;48.748;9.278;2023-05-20T14:49:59;3.73;;;3.23;;
11498;SDS011;5806;48.748;9.278;2023-05-20T14:52:26;5.43;;;4.03;;
11498;SDS011;5806;48.748;9.278;2023-05-20T14:54:54;5.60;;;3.70;;
11498;SDS011;5806;48.748;9.278;2023-05-20T14:57:21;4.63;;;3.60;;
11498;SDS011;5806;48.748;9.278;2023-05-20T14:59:49;4.60;;;3.83;;
11498;SDS011;5806;48.748;9.278;2023-05-20T15:02:17;3.97;;;3.30;;
11498;SDS011;5806;48.748;9.278;2023-05-20T15:04:45;4.67;;;3.60;;
11498;SDS011;5806;48.748;9.278;2023-05-20T15:07:13;6.40;;;4.33;;
11498;SDS011;5806;48.748;9.278;2023-05-20T15:09:41;7.50;;;4.37;;
11498;SDS011;5806;48.748;9.278;2023-05-20T15:12:09;5.40;;;4.20;;